sensor_id;sensor_type;location;lat;lon;timestamp;pressure;altitude;pressure_sealevel;temperature;humidity
76808;BME280;65758;45.458;11.062;2023-04-15T00:01:25;99838.16;;;10.16;61.43
76808;BME280;65758;45.458;11.062;2023-04-15T00:03:53;99836.04;;;10.17;61.08
76808;BME280;65758;45.458;11.062;2023-04-15T00:06:21;99834.98;;;10.16;60.97
76808;BME280;65758;45.458;11.062;2023-04-15T00:08:48;99834.20;;;10.18;60.91
76808;BME280;65758;45.458;11.062;2023-04-15T00:11:16;99836.73;;;10.21;60.64
76808;BME280;65758;45.458;11.062;2023-04-15T00:13:43;99835.40;;;10.26;60.95
76808;BME280;65758;45.458;11.062;2023-04-15T00:16:11;99839.23;;;10.34;60.65
76808;BME280;65758;45.458;11.062;2023-04-15T00:18:37;99839.87;;;10.39;60.34
76808;BME280;65758;45.458;11.062;2023-04-15T00:21:04;99836.48;;;10.42;60.02
76808;BME280;65758;45.458;11.062;2023-04-15T00:23:31;99829.98;;;10.44;59.61
76808;BME280;65758;45.458;11.062;2023-04-15T00:25:57;99833.11;;;10.46;58.95
76808;BME280;65758;45.458;11.062;2023-04-15T00:28:24;99831.98;;;10.48;58.98
76808;BME280;65758;45.458;11.062;2023-04-15T00:30:51;99827.64;;;10.49;58.86
76808;BME280;65758;45.458;11.062;2023-04-15T00:33:18;99829.92;;;10.48;58.91
76808;BME280;65758;45.458;11.062;2023-04-15T00:35:45;99829.69;;;10.51;59.13
76808;BME280;65758;45.458;11.062;2023-04-15T00:38:12;99831.43;;;10.53;58.73
76808;BME280;65758;45.458;11.062;2023-04-15T00:40:40;99828.80;;;10.54;58.55
76808;BME280;65758;45.458;11.062;2023-04-15T00:43:07;99828.10;;;10.54;58.68
76808;BME280;65758;45.458;11.062;2023-04-15T00:45:33;99827.48;;;10.52;58.81
76808;BME280;65758;45.458;11.062;2023-04-15T00:48:00;99827.00;;;10.47;58.55
76808;BME280;65758;45.458;11.062;2023-04-15T00:50:27;99827.34;;;10.38;58.49
76808;BME280;65758;45.458;11.062;2023-04-15T00:52:54;99825.10;;;10.25;58.82
76808;BME280;65758;45.458;11.062;2023-04-15T00:55:21;99824.38;;;10.19;58.68
76808;BME280;65758;45.458;11.062;2023-04-15T00:57:49;99825.89;;;10.15;58.64
76808;BME280;65758;45.458;11.062;2023-04-15T01:00:16;99824.80;;;10.10;59.02
76808;BME280;65758;45.458;11.062;2023-04-15T01:02:44;99823.94;;;10.07;59.10
76808;BME280;65758;45.458;11.062;2023-04-15T01:05:11;99822.34;;;10.04;59.27
76808;BME280;65758;45.458;11.062;2023-04-15T01:07:38;99824.30;;;10.01;58.92
76808;BME280;65758;45.458;11.062;2023-04-15T01:10:06;99825.11;;;9.97;58.89
76808;BME280;65758;45.458;11.062;2023-04-15T01:12:33;99829.00;;;9.94;58.72
76808;BME280;65758;45.458;11.062;2023-04-15T01:15:01;99823.73;;;9.91;58.95
76808;BME280;65758;45.458;11.062;2023-04-15T01:17:28;99824.29;;;9.89;59.11
76808;BME280;65758;45.458;11.062;2023-04-15T01:19:55;99823.80;;;9.86;59.14
76808;BME280;65758;45.458;11.062;2023-04-15T01:22:26;99827.02;;;9.85;59.11
76808;BME280;65758;45.458;11.062;2023-04-15T01:25:01;99828.87;;;9.85;59.22
76808;BME280;65758;45.458;11.062;2023-04-15T01:27:32;99830.73;;;9.85;58.76
76808;BME280;65758;45.458;11.062;2023-04-15T01:30:00;99829.41;;;9.84;58.94
76808;BME280;65758;45.458;11.062;2023-04-15T01:32:31;99828.81;;;9.82;59.10
76808;BME280;65758;45.458;11.062;2023-04-15T01:34:58;99827.96;;;9.81;59.00
76808;BME280;65758;45.458;11.062;2023-04-15T01:37:25;99824.17;;;9.79;58.71
76808;BME280;65758;45.458;11.062;2023-04-15T01:39:51;99821.77;;;9.76;58.93
76808;BME280;65758;45.458;11.062;2023-04-15T01:42:19;99822.29;;;9.73;58.61
76808;BME280;65758;45.458;11.062;2023-04-15T01:44:47;99823.77;;;9.70;58.67
76808;BME280;65758;45.458;11.062;2023-04-15T01:47:14;99824.13;;;9.68;58.86
76808;BME280;65758;45.458;11.062;2023-04-15T01:49:40;99820.70;;;9.66;58.59
76808;BME280;65758;45.458;11.062;2023-04-15T01:52:07;99823.97;;;9.64;58.54
76808;BME280;65758;45.458;11.062;2023-04-15T01:54:34;99824.92;;;9.61;58.80
76808;BME280;65758;45.458;11.062;2023-04-15T01:57:01;99822.96;;;9.62;58.56
76808;BME280;65758;45.458;11.062;2023-04-15T01:59:29;99822.17;;;9.61;58.56
76808;BME280;65758;45.458;11.062;2023-04-15T02:01:57;99822.41;;;9.57;58.69
76808;BME280;65758;45.458;11.062;2023-04-15T02:04:26;99823.24;;;9.54;58.86
76808;BME280;65758;45.458;11.062;2023-04-15T02:06:53;99822.71;;;9.52;58.77
76808;BME280;65758;45.458;11.062;2023-04-15T02:09:20;99821.77;;;9.47;58.65
76808;BME280;65758;45.458;11.062;2023-04-15T02:11:47;99824.46;;;9.47;58.81
76808;BME280;65758;45.458;11.062;2023-04-15T02:14:13;99829.34;;;9.48;58.61
76808;BME280;65758;45.458;11.062;2023-04-15T02:16:40;99825.75;;;9.49;58.57
76808;BME280;65758;45.458;11.062;2023-04-15T02:19:07;99825.58;;;9.50;58.34
76808;BME280;65758;45.458;11.062;2023-04-15T02:21:36;99821.91;;;9.50;58.62
76808;BME280;65758;45.458;11.062;2023-04-15T02:24:03;99823.28;;;9.50;58.65
76808;BME280;65758;45.458;11.062;2023-04-15T02:26:29;99824.98;;;9.51;58.61
76808;BME280;65758;45.458;11.062;2023-04-15T02:28:58;99830.98;;;9.51;58.66
76808;BME280;65758;45.458;11.062;2023-04-15T02:31:26;99829.32;;;9.49;58.72
76808;BME280;65758;45.458;11.062;2023-04-15T02:33:52;99829.58;;;9.46;58.61
76808;BME280;65758;45.458;11.062;2023-04-15T02:36:19;99831.59;;;9.44;58.96
76808;BME280;65758;45.458;11.062;2023-04-15T02:38:46;99827.09;;;9.39;58.74
76808;BME280;65758;45.458;11.062;2023-04-15T02:41:14;99832.80;;;9.36;58.98
76808;BME280;65758;45.458;11.062;2023-04-15T02:43:41;99828.08;;;9.32;58.88
76808;BME280;65758;45.458;11.062;2023-04-15T02:46:08;99825.57;;;9.29;59.25
76808;BME280;65758;45.458;11.062;2023-04-15T02:48:38;99830.65;;;9.25;59.16
76808;BME280;65758;45.458;11.062;2023-04-15T02:51:19;99831.41;;;9.12;59.07
76808;BME280;65758;45.458;11.062;2023-04-15T02:53:47;99831.69;;;9.02;59.53
76808;BME280;65758;45.458;11.062;2023-04-15T02:56:14;99828.92;;;8.98;59.62
76808;BME280;65758;45.458;11.062;2023-04-15T02:58:43;99832.52;;;8.94;59.61
76808;BME280;65758;45.458;11.062;2023-04-15T03:01:11;99835.31;;;8.89;59.82
76808;BME280;65758;45.458;11.062;2023-04-15T03:03:39;99834.52;;;8.85;60.00
76808;BME280;65758;45.458;11.062;2023-04-15T03:06:06;99842.48;;;8.85;59.95
76808;BME280;65758;45.458;11.062;2023-04-15T03:08:34;99843.65;;;8.86;59.97
76808;BME280;65758;45.458;11.062;2023-04-15T03:11:02;99846.59;;;8.89;60.01
76808;BME280;65758;45.458;11.062;2023-04-15T03:13:30;99847.90;;;8.91;60.08
76808;BME280;65758;45.458;11.062;2023-04-15T03:15:57;99848.67;;;8.94;59.74
76808;BME280;65758;45.458;11.062;2023-04-15T03:18:25;99848.86;;;8.95;59.51
76808;BME280;65758;45.458;11.062;2023-04-15T03:20:52;99853.59;;;8.94;59.53
76808;BME280;65758;45.458;11.062;2023-04-15T03:23:19;99853.30;;;8.93;59.65
76808;BME280;65758;45.458;11.062;2023-04-15T03:25:47;99852.52;;;8.95;59.49
76808;BME280;65758;45.458;11.062;2023-04-15T03:28:14;99854.38;;;8.95;59.62
76808;BME280;65758;45.458;11.062;2023-04-15T03:30:41;99855.13;;;8.97;59.62
76808;BME280;65758;45.458;11.062;2023-04-15T03:33:08;99857.11;;;8.99;59.26
76808;BME280;65758;45.458;11.062;2023-04-15T03:35:35;99855.93;;;9.01;59.37
76808;BME280;65758;45.458;11.062;2023-04-15T03:38:02;99856.67;;;9.02;59.26
76808;BME280;65758;45.458;11.062;2023-04-15T03:40:28;99859.75;;;9.01;59.36
76808;BME280;65758;45.458;11.062;2023-04-15T03:42:55;99856.73;;;9.00;59.13
76808;BME280;65758;45.458;11.062;2023-04-15T03:45:22;99859.76;;;8.99;59.25
76808;BME280;65758;45.458;11.062;2023-04-15T03:47:49;99858.42;;;8.98;59.47
76808;BME280;65758;45.458;11.062;2023-04-15T03:50:16;99856.20;;;8.96;59.21
76808;BME280;65758;45.458;11.062;2023-04-15T03:52:43;99864.52;;;8.91;59.73
76808;BME280;65758;45.458;11.062;2023-04-15T03:55:11;99856.61;;;8.85;59.70
76808;BME280;65758;45.458;11.062;2023-04-15T03:57:37;99861.02;;;8.80;59.72
76808;BME280;65758;45.458;11.062;2023-04-15T04:00:06;99867.88;;;8.75;59.93
76808;BME280;65758;45.458;11.062;2023-04-15T04:02:37;99865.02;;;8.72;59.97
76808;BME280;65758;45.458;11.062;2023-04-15T04:05:04;99862.95;;;8.70;60.08
76808;BME280;65758;45.458;11.062;2023-04-15T04:07:31;99863.87;;;8.68;60.15
76808;BME280;65758;45.458;11.062;2023-04-15T04:09:58;99869.41;;;8.66;60.35
76808;BME280;65758;45.458;11.062;2023-04-15T04:12:24;99868.27;;;8.62;60.53
76808;BME280;65758;45.458;11.062;2023-04-15T04:14:51;99869.52;;;8.54;60.59
76808;BME280;65758;45.458;11.062;2023-04-15T04:17:18;99870.08;;;8.49;60.67
76808;BME280;65758;45.458;11.062;2023-04-15T04:19:44;99873.84;;;8.46;60.71
76808;BME280;65758;45.458;11.062;2023-04-15T04:22:11;99875.70;;;8.45;61.02
76808;BME280;65758;45.458;11.062;2023-04-15T04:24:38;99877.15;;;8.44;60.75
76808;BME280;65758;45.458;11.062;2023-04-15T04:27:05;99881.25;;;8.42;60.97
76808;BME280;65758;45.458;11.062;2023-04-15T04:29:31;99881.67;;;8.39;60.94
76808;BME280;65758;45.458;11.062;2023-04-15T04:31:58;99874.81;;;8.36;60.87
76808;BME280;65758;45.458;11.062;2023-04-15T04:34:25;99875.74;;;8.32;60.77
76808;BME280;65758;45.458;11.062;2023-04-15T04:36:52;99873.38;;;8.30;60.90
76808;BME280;65758;45.458;11.062;2023-04-15T04:39:18;99873.05;;;8.28;61.02
76808;BME280;65758;45.458;11.062;2023-04-15T04:41:45;99874.12;;;8.27;60.99
76808;BME280;65758;45.458;11.062;2023-04-15T04:44:12;99873.00;;;8.28;61.45
76808;BME280;65758;45.458;11.062;2023-04-15T04:46:38;99870.16;;;8.29;61.48
76808;BME280;65758;45.458;11.062;2023-04-15T04:49:05;99877.02;;;8.31;61.75
76808;BME280;65758;45.458;11.062;2023-04-15T04:51:32;99879.77;;;8.29;61.16
76808;BME280;65758;45.458;11.062;2023-04-15T04:53:59;99880.48;;;8.28;61.24
76808;BME280;65758;45.458;11.062;2023-04-15T04:56:28;99882.89;;;8.27;61.14
76808;BME280;65758;45.458;11.062;2023-04-15T04:58:55;99890.02;;;8.26;61.22
76808;BME280;65758;45.458;11.062;2023-04-15T05:01:22;99887.41;;;8.28;61.45
76808;BME280;65758;45.458;11.062;2023-04-15T05:03:49;99889.91;;;8.32;61.18
76808;BME280;65758;45.458;11.062;2023-04-15T05:06:16;99895.91;;;8.35;61.22
76808;BME280;65758;45.458;11.062;2023-04-15T05:08:42;99899.94;;;8.38;61.07
76808;BME280;65758;45.458;11.062;2023-04-15T05:11:09;99898.64;;;8.40;61.00
76808;BME280;65758;45.458;11.062;2023-04-15T05:13:35;99907.34;;;8.41;60.96
76808;BME280;65758;45.458;11.062;2023-04-15T05:16:05;99910.52;;;8.44;61.17
76808;BME280;65758;45.458;11.062;2023-04-15T05:18:32;99912.86;;;8.48;61.53
76808;BME280;65758;45.458;11.062;2023-04-15T05:20:58;99915.44;;;8.50;61.49
76808;BME280;65758;45.458;11.062;2023-04-15T05:23:26;99920.58;;;8.49;61.30
76808;BME280;65758;45.458;11.062;2023-04-15T05:25:52;99927.69;;;8.44;61.18
76808;BME280;65758;45.458;11.062;2023-04-15T05:28:19;99937.38;;;8.41;61.17
76808;BME280;65758;45.458;11.062;2023-04-15T05:30:46;99934.02;;;8.39;61.71
76808;BME280;65758;45.458;11.062;2023-04-15T05:33:13;99936.62;;;8.39;61.58
76808;BME280;65758;45.458;11.062;2023-04-15T05:35:39;99938.73;;;8.38;61.57
76808;BME280;65758;45.458;11.062;2023-04-15T05:38:06;99944.13;;;8.41;61.54
76808;BME280;65758;45.458;11.062;2023-04-15T05:40:33;99943.27;;;8.45;61.63
76808;BME280;65758;45.458;11.062;2023-04-15T05:43:00;99946.31;;;8.49;61.72
76808;BME280;65758;45.458;11.062;2023-04-15T05:45:26;99948.79;;;8.52;61.78
76808;BME280;65758;45.458;11.062;2023-04-15T05:47:53;99945.58;;;8.56;61.74
76808;BME280;65758;45.458;11.062;2023-04-15T05:50:20;99943.10;;;8.62;61.81
76808;BME280;65758;45.458;11.062;2023-04-15T05:52:47;99945.89;;;8.69;62.10
76808;BME280;65758;45.458;11.062;2023-04-15T05:55:13;99948.11;;;8.79;61.91
76808;BME280;65758;45.458;11.062;2023-04-15T05:57:40;99951.38;;;8.92;61.71
76808;BME280;65758;45.458;11.062;2023-04-15T06:00:07;99951.19;;;9.08;61.55
76808;BME280;65758;45.458;11.062;2023-04-15T06:02:36;99950.88;;;9.26;62.04
76808;BME280;65758;45.458;11.062;2023-04-15T06:05:03;99947.84;;;9.45;61.64
76808;BME280;65758;45.458;11.062;2023-04-15T06:07:36;99944.02;;;9.62;60.83
76808;BME280;65758;45.458;11.062;2023-04-15T06:10:03;99943.86;;;9.78;60.16
76808;BME280;65758;45.458;11.062;2023-04-15T06:12:31;99941.58;;;9.94;59.65
76808;BME280;65758;45.458;11.062;2023-04-15T06:14:58;99944.53;;;10.13;59.59
76808;BME280;65758;45.458;11.062;2023-04-15T06:17:26;99944.09;;;10.31;58.83
76808;BME280;65758;45.458;11.062;2023-04-15T06:19:52;99944.20;;;10.52;59.14
76808;BME280;65758;45.458;11.062;2023-04-15T06:22:22;99940.70;;;10.73;58.54
76808;BME280;65758;45.458;11.062;2023-04-15T06:24:49;99934.98;;;10.91;58.41
76808;BME280;65758;45.458;11.062;2023-04-15T06:27:16;99936.48;;;11.09;57.67
76808;BME280;65758;45.458;11.062;2023-04-15T06:29:43;99934.66;;;11.29;57.22
76808;BME280;65758;45.458;11.062;2023-04-15T06:32:10;99934.41;;;11.50;56.66
76808;BME280;65758;45.458;11.062;2023-04-15T06:34:37;99937.70;;;11.72;56.76
76808;BME280;65758;45.458;11.062;2023-04-15T06:37:04;99940.94;;;11.98;56.35
76808;BME280;65758;45.458;11.062;2023-04-15T06:39:31;99942.95;;;12.23;55.70
76808;BME280;65758;45.458;11.062;2023-04-15T06:41:58;99941.77;;;12.47;55.21
76808;BME280;65758;45.458;11.062;2023-04-15T06:44:25;99943.42;;;12.70;54.24
76808;BME280;65758;45.458;11.062;2023-04-15T06:46:52;99935.77;;;12.90;53.78
76808;BME280;65758;45.458;11.062;2023-04-15T06:49:18;99934.84;;;13.11;53.69
76808;BME280;65758;45.458;11.062;2023-04-15T06:51:45;99935.88;;;13.29;53.40
76808;BME280;65758;45.458;11.062;2023-04-15T06:54:12;99936.64;;;13.46;53.38
76808;BME280;65758;45.458;11.062;2023-04-15T06:56:38;99935.70;;;13.64;53.46
76808;BME280;65758;45.458;11.062;2023-04-15T06:59:05;99938.33;;;13.81;52.68
76808;BME280;65758;45.458;11.062;2023-04-15T07:01:32;99940.61;;;13.99;52.46
76808;BME280;65758;45.458;11.062;2023-04-15T07:03:59;99935.38;;;14.12;52.03
76808;BME280;65758;45.458;11.062;2023-04-15T07:06:26;99934.54;;;14.26;51.74
76808;BME280;65758;45.458;11.062;2023-04-15T07:08:53;99933.13;;;14.39;51.76
76808;BME280;65758;45.458;11.062;2023-04-15T07:11:21;99931.56;;;14.52;51.71
76808;BME280;65758;45.458;11.062;2023-04-15T07:13:48;99929.21;;;14.63;51.41
76808;BME280;65758;45.458;11.062;2023-04-15T07:16:14;99927.80;;;14.76;51.73
76808;BME280;65758;45.458;11.062;2023-04-15T07:18:41;99927.26;;;14.93;52.45
76808;BME280;65758;45.458;11.062;2023-04-15T07:21:08;99925.59;;;15.10;51.68
76808;BME280;65758;45.458;11.062;2023-04-15T07:23:35;99928.17;;;15.22;51.79
76808;BME280;65758;45.458;11.062;2023-04-15T07:26:02;99927.11;;;15.35;52.08
76808;BME280;65758;45.458;11.062;2023-04-15T07:28:29;99923.80;;;15.43;51.39
76808;BME280;65758;45.458;11.062;2023-04-15T07:30:56;99924.58;;;15.49;51.94
76808;BME280;65758;45.458;11.062;2023-04-15T07:33:23;99922.86;;;15.51;51.12
76808;BME280;65758;45.458;11.062;2023-04-15T07:35:49;99925.68;;;15.54;51.01
76808;BME280;65758;45.458;11.062;2023-04-15T07:38:16;99922.91;;;15.60;51.00
76808;BME280;65758;45.458;11.062;2023-04-15T07:40:43;99926.98;;;15.66;50.28
76808;BME280;65758;45.458;11.062;2023-04-15T07:43:10;99926.20;;;15.69;49.32
76808;BME280;65758;45.458;11.062;2023-04-15T07:45:36;99924.92;;;15.69;49.08
76808;BME280;65758;45.458;11.062;2023-04-15T07:48:04;99924.48;;;15.72;49.20
76808;BME280;65758;45.458;11.062;2023-04-15T07:50:32;99925.23;;;15.76;49.08
76808;BME280;65758;45.458;11.062;2023-04-15T07:52:58;99919.52;;;15.83;49.33
76808;BME280;65758;45.458;11.062;2023-04-15T07:55:25;99921.42;;;15.91;49.02
76808;BME280;65758;45.458;11.062;2023-04-15T07:57:53;99923.66;;;16.00;48.69
76808;BME280;65758;45.458;11.062;2023-04-15T08:00:20;99922.35;;;16.06;48.43
76808;BME280;65758;45.458;11.062;2023-04-15T08:02:48;99923.27;;;16.14;48.16
76808;BME280;65758;45.458;11.062;2023-04-15T08:05:15;99923.77;;;16.24;48.26
76808;BME280;65758;45.458;11.062;2023-04-15T08:07:42;99924.04;;;16.33;47.75
76808;BME280;65758;45.458;11.062;2023-04-15T08:10:09;99923.13;;;16.40;47.54
76808;BME280;65758;45.458;11.062;2023-04-15T08:12:36;99925.22;;;16.50;47.72
76808;BME280;65758;45.458;11.062;2023-04-15T08:15:04;99932.17;;;16.62;47.86
76808;BME280;65758;45.458;11.062;2023-04-15T08:17:30;99931.11;;;16.74;48.31
76808;BME280;65758;45.458;11.062;2023-04-15T08:19:57;99933.99;;;16.88;48.32
76808;BME280;65758;45.458;11.062;2023-04-15T08:22:24;99931.20;;;17.00;47.67
76808;BME280;65758;45.458;11.062;2023-04-15T08:24:51;99928.36;;;17.07;46.42
76808;BME280;65758;45.458;11.062;2023-04-15T08:27:18;99923.61;;;17.13;45.99
76808;BME280;65758;45.458;11.062;2023-04-15T08:29:44;99926.37;;;17.14;46.21
76808;BME280;65758;45.458;11.062;2023-04-15T08:32:11;99925.48;;;17.21;46.48
76808;BME280;65758;45.458;11.062;2023-04-15T08:34:38;99922.79;;;17.30;46.51
76808;BME280;65758;45.458;11.062;2023-04-15T08:37:04;99920.23;;;17.43;47.12
76808;BME280;65758;45.458;11.062;2023-04-15T08:39:32;99923.44;;;17.57;46.81
76808;BME280;65758;45.458;11.062;2023-04-15T08:42:01;99927.06;;;17.70;46.12
76808;BME280;65758;45.458;11.062;2023-04-15T08:44:29;99923.63;;;17.80;46.08
76808;BME280;65758;45.458;11.062;2023-04-15T08:47:01;99923.81;;;17.92;45.92
76808;BME280;65758;45.458;11.062;2023-04-15T08:49:31;99925.94;;;18.04;45.38
76808;BME280;65758;45.458;11.062;2023-04-15T08:51:58;99924.54;;;18.19;45.59
76808;BME280;65758;45.458;11.062;2023-04-15T08:54:26;99925.62;;;18.33;44.84
76808;BME280;65758;45.458;11.062;2023-04-15T08:56:53;99924.90;;;18.40;43.80
76808;BME280;65758;45.458;11.062;2023-04-15T08:59:20;99922.81;;;18.47;44.09
76808;BME280;65758;45.458;11.062;2023-04-15T09:01:49;99922.73;;;18.59;45.49
76808;BME280;65758;45.458;11.062;2023-04-15T09:04:18;99924.30;;;18.72;45.71
76808;BME280;65758;45.458;11.062;2023-04-15T09:06:46;99919.61;;;18.81;44.80
76808;BME280;65758;45.458;11.062;2023-04-15T09:09:13;99927.31;;;18.89;44.96
76808;BME280;65758;45.458;11.062;2023-04-15T09:11:40;99925.30;;;18.97;43.63
76808;BME280;65758;45.458;11.062;2023-04-15T09:14:08;99924.70;;;19.06;44.19
76808;BME280;65758;45.458;11.062;2023-04-15T09:16:59;99923.69;;;19.14;44.17
76808;BME280;65758;45.458;11.062;2023-04-15T09:19:27;99918.36;;;19.23;42.87
76808;BME280;65758;45.458;11.062;2023-04-15T09:21:55;99920.20;;;19.29;42.48
76808;BME280;65758;45.458;11.062;2023-04-15T09:24:25;99920.85;;;19.36;42.13
76808;BME280;65758;45.458;11.062;2023-04-15T09:26:59;99922.11;;;19.44;42.77
76808;BME280;65758;45.458;11.062;2023-04-15T09:29:25;99922.59;;;19.55;43.22
76808;BME280;65758;45.458;11.062;2023-04-15T09:31:52;99917.73;;;19.65;42.23
76808;BME280;65758;45.458;11.062;2023-04-15T09:34:19;99916.85;;;19.73;41.22
76808;BME280;65758;45.458;11.062;2023-04-15T09:39:16;99915.91;;;19.68;40.33
76808;BME280;65758;45.458;11.062;2023-04-15T09:41:43;99915.08;;;19.68;40.24
76808;BME280;65758;45.458;11.062;2023-04-15T09:44:23;99915.90;;;19.68;40.40
76808;BME280;65758;45.458;11.062;2023-04-15T09:46:50;99912.70;;;19.75;39.94
76808;BME280;65758;45.458;11.062;2023-04-15T09:49:17;99908.29;;;19.85;40.28
76808;BME280;65758;45.458;11.062;2023-04-15T09:51:45;99907.00;;;19.93;40.35
76808;BME280;65758;45.458;11.062;2023-04-15T09:54:35;99910.34;;;19.96;39.11
76808;BME280;65758;45.458;11.062;2023-04-15T09:57:06;99909.23;;;20.04;40.37
76808;BME280;65758;45.458;11.062;2023-04-15T09:59:33;99911.17;;;20.12;38.83
76808;BME280;65758;45.458;11.062;2023-04-15T10:02:01;99904.31;;;20.19;38.34
76808;BME280;65758;45.458;11.062;2023-04-15T10:04:31;99903.61;;;20.28;39.43
76808;BME280;65758;45.458;11.062;2023-04-15T10:07:02;99902.56;;;20.28;39.67
76808;BME280;65758;45.458;11.062;2023-04-15T10:09:30;99899.59;;;20.33;38.92
76808;BME280;65758;45.458;11.062;2023-04-15T10:11:59;99898.95;;;20.37;37.58
76808;BME280;65758;45.458;11.062;2023-04-15T10:14:27;99896.17;;;20.41;38.37
76808;BME280;65758;45.458;11.062;2023-04-15T10:17:00;99892.56;;;20.53;39.41
76808;BME280;65758;45.458;11.062;2023-04-15T10:19:30;99887.34;;;20.69;41.09
76808;BME280;65758;45.458;11.062;2023-04-15T10:21:59;99885.41;;;20.78;40.84
76808;BME280;65758;45.458;11.062;2023-04-15T10:24:26;99894.59;;;20.80;39.74
76808;BME280;65758;45.458;11.062;2023-04-15T10:26:53;99895.58;;;20.78;39.58
76808;BME280;65758;45.458;11.062;2023-04-15T10:29:23;99889.30;;;20.85;40.02
76808;BME280;65758;45.458;11.062;2023-04-15T10:31:51;99888.95;;;20.96;39.94
76808;BME280;65758;45.458;11.062;2023-04-15T10:34:20;99889.83;;;20.99;39.49
76808;BME280;65758;45.458;11.062;2023-04-15T10:36:48;99891.93;;;20.95;39.33
76808;BME280;65758;45.458;11.062;2023-04-15T10:39:38;99887.98;;;20.96;39.89
76808;BME280;65758;45.458;11.062;2023-04-15T10:42:07;99890.34;;;21.03;40.13
76808;BME280;65758;45.458;11.062;2023-04-15T10:44:36;99886.98;;;21.06;39.22
76808;BME280;65758;45.458;11.062;2023-04-15T10:47:09;99886.83;;;21.08;40.03
76808;BME280;65758;45.458;11.062;2023-04-15T10:49:57;99883.78;;;21.10;39.87
76808;BME280;65758;45.458;11.062;2023-04-15T10:52:26;99881.69;;;21.16;40.03
76808;BME280;65758;45.458;11.062;2023-04-15T10:55:12;99876.92;;;21.20;38.97
76808;BME280;65758;45.458;11.062;2023-04-15T10:57:42;99874.98;;;21.16;38.84
76808;BME280;65758;45.458;11.062;2023-04-15T11:00:14;99872.99;;;21.13;38.89
76808;BME280;65758;45.458;11.062;2023-04-15T11:05:13;99868.12;;;21.09;39.39
76808;BME280;65758;45.458;11.062;2023-04-15T11:12:40;99874.34;;;20.87;38.86
76808;BME280;65758;45.458;11.062;2023-04-15T11:18:23;99872.85;;;20.79;38.55
76808;BME280;65758;45.458;11.062;2023-04-15T11:20:51;99874.04;;;20.70;38.81
76808;BME280;65758;45.458;11.062;2023-04-15T11:23:22;99869.49;;;20.72;39.01
76808;BME280;65758;45.458;11.062;2023-04-15T11:25:57;99868.83;;;20.78;39.53
76808;BME280;65758;45.458;11.062;2023-04-15T11:28:28;99870.83;;;20.89;38.91
76808;BME280;65758;45.458;11.062;2023-04-15T11:30:56;99870.38;;;20.96;38.81
76808;BME280;65758;45.458;11.062;2023-04-15T11:33:24;99861.06;;;21.06;38.89
76808;BME280;65758;45.458;11.062;2023-04-15T11:35:52;99862.41;;;21.13;38.64
76808;BME280;65758;45.458;11.062;2023-04-15T11:38:21;99867.73;;;21.18;38.31
76808;BME280;65758;45.458;11.062;2023-04-15T11:40:49;99860.68;;;21.24;38.03
76808;BME280;65758;45.458;11.062;2023-04-15T11:43:18;99859.88;;;21.26;37.96
76808;BME280;65758;45.458;11.062;2023-04-15T11:45:58;99859.73;;;21.32;37.60
76808;BME280;65758;45.458;11.062;2023-04-15T11:48:33;99864.95;;;21.31;36.26
76808;BME280;65758;45.458;11.062;2023-04-15T11:51:02;99860.78;;;21.24;36.72
76808;BME280;65758;45.458;11.062;2023-04-15T11:53:36;99859.21;;;21.23;36.80
76808;BME280;65758;45.458;11.062;2023-04-15T11:56:04;99856.99;;;21.32;36.82
76808;BME280;65758;45.458;11.062;2023-04-15T11:58:34;99854.15;;;21.45;36.43
76808;BME280;65758;45.458;11.062;2023-04-15T12:01:04;99852.23;;;21.56;35.87
76808;BME280;65758;45.458;11.062;2023-04-15T12:03:40;99855.92;;;21.69;35.82
76808;BME280;65758;45.458;11.062;2023-04-15T12:06:22;99849.48;;;21.83;36.10
76808;BME280;65758;45.458;11.062;2023-04-15T12:11:47;99849.92;;;22.18;36.22
76808;BME280;65758;45.458;11.062;2023-04-15T12:16:46;99855.16;;;21.59;35.75
76808;BME280;65758;45.458;11.062;2023-04-15T12:19:24;99851.95;;;21.25;35.91
76808;BME280;65758;45.458;11.062;2023-04-15T12:21:53;99862.16;;;20.93;36.19
76808;BME280;65758;45.458;11.062;2023-04-15T12:24:25;99863.20;;;20.67;36.53
76808;BME280;65758;45.458;11.062;2023-04-15T12:26:54;99863.64;;;20.44;36.84
76808;BME280;65758;45.458;11.062;2023-04-15T12:29:27;99867.69;;;20.22;37.06
76808;BME280;65758;45.458;11.062;2023-04-15T12:34:33;99876.02;;;19.83;37.80
76808;BME280;65758;45.458;11.062;2023-04-15T12:37:02;99868.57;;;19.67;38.63
76808;BME280;65758;45.458;11.062;2023-04-15T12:39:31;99872.80;;;19.52;39.08
76808;BME280;65758;45.458;11.062;2023-04-15T12:42:00;99880.38;;;19.35;39.16
76808;BME280;65758;45.458;11.062;2023-04-15T12:44:27;99874.16;;;19.17;39.54
76808;BME280;65758;45.458;11.062;2023-04-15T12:46:54;99873.81;;;19.07;39.72
76808;BME280;65758;45.458;11.062;2023-04-15T12:49:22;99872.89;;;19.00;39.79
76808;BME280;65758;45.458;11.062;2023-04-15T12:51:51;99866.13;;;18.93;40.02
76808;BME280;65758;45.458;11.062;2023-04-15T12:54:19;99862.19;;;18.87;40.62
76808;BME280;65758;45.458;11.062;2023-04-15T12:56:47;99847.27;;;18.87;40.86
76808;BME280;65758;45.458;11.062;2023-04-15T12:59:15;99850.27;;;19.05;41.08
76808;BME280;65758;45.458;11.062;2023-04-15T13:01:45;99852.05;;;19.28;40.59
76808;BME280;65758;45.458;11.062;2023-04-15T13:04:13;99850.40;;;19.42;39.81
76808;BME280;65758;45.458;11.062;2023-04-15T13:06:41;99850.52;;;19.51;39.90
76808;BME280;65758;45.458;11.062;2023-04-15T13:09:08;99854.33;;;19.71;39.55
76808;BME280;65758;45.458;11.062;2023-04-15T13:11:35;99849.70;;;19.78;39.53
76808;BME280;65758;45.458;11.062;2023-04-15T13:14:06;99847.14;;;19.78;39.17
76808;BME280;65758;45.458;11.062;2023-04-15T13:16:33;99845.95;;;19.79;39.30
76808;BME280;65758;45.458;11.062;2023-04-15T13:19:02;99844.90;;;19.77;39.33
76808;BME280;65758;45.458;11.062;2023-04-15T13:21:30;99850.83;;;19.69;39.27